createdAt,value
2019-04-06T00:02:11.184Z,40.60
2019-04-06T00:04:38.544Z,47.13
2019-04-06T00:07:05.911Z,48.50
2019-04-06T00:09:33.211Z,56.83
2019-04-06T00:12:00.267Z,53.05
2019-04-06T00:14:29.203Z,58.58
2019-04-06T00:16:56.529Z,58.90
2019-04-06T00:19:23.564Z,54.98
2019-04-06T00:21:50.862Z,56.48
2019-04-06T00:24:17.902Z,53.33
2019-04-06T00:26:45.198Z,50.15
2019-04-06T00:29:12.228Z,49.95
2019-04-06T00:31:39.277Z,48.52
2019-04-06T00:34:07.725Z,44.38
2019-04-06T00:36:35.026Z,51.48
2019-04-06T00:39:02.417Z,50.90
2019-04-06T00:41:30.542Z,51.42
2019-04-06T00:43:57.845Z,51.70
2019-04-06T00:46:24.883Z,53.83
2019-04-06T00:48:51.939Z,51.55
2019-04-06T00:51:19.363Z,48.63
2019-04-06T00:53:47.679Z,53.48
2019-04-06T00:56:14.722Z,52.17
2019-04-06T00:58:41.768Z,46.35
2019-04-06T01:01:08.800Z,56.58
2019-04-06T01:03:35.970Z,49.40
2019-04-06T01:06:03.238Z,52.48
2019-04-06T01:08:30.963Z,54.60
2019-04-06T01:10:58.010Z,41.70
2019-04-06T01:13:25.064Z,43.60
2019-04-06T01:15:52.378Z,48.23
2019-04-06T01:18:19.423Z,51.63
2019-04-06T01:20:47.678Z,55.03
2019-04-06T01:23:14.989Z,46.77
2019-04-06T01:25:42.276Z,56.92
2019-04-06T01:28:09.572Z,50.70
2019-04-06T01:30:36.869Z,44.85
2019-04-06T01:33:04.238Z,50.85
2019-04-06T01:35:31.280Z,51.90
2019-04-06T01:37:58.590Z,44.83
2019-04-06T01:40:25.699Z,51.42
2019-04-06T01:42:53.074Z,50.67
2019-04-06T01:45:20.129Z,63.52
2019-04-06T01:47:47.462Z,75.28
2019-04-06T01:50:14.815Z,64.60
2019-04-06T01:52:42.201Z,58.38
2019-04-06T01:55:09.176Z,55.52
2019-04-06T01:57:36.230Z,49.75
2019-04-06T02:00:03.514Z,44.48
2019-04-06T02:02:31.886Z,45.10
2019-04-06T02:05:00.331Z,44.20
2019-04-06T02:07:27.621Z,49.03
2019-04-06T02:09:54.922Z,45.75
2019-04-06T02:12:22.331Z,34.83
2019-04-06T02:14:49.603Z,37.23
2019-04-06T02:17:16.639Z,46.90
2019-04-06T02:19:43.775Z,48.08
2019-04-06T02:22:11.065Z,52.93
2019-04-06T02:24:38.122Z,45.33
2019-04-06T02:27:05.394Z,52.58
2019-04-06T02:29:32.711Z,47.95
2019-04-06T02:31:59.867Z,45.40
2019-04-06T02:34:27.273Z,54.90
2019-04-06T02:36:54.265Z,54.63
2019-04-06T02:39:21.612Z,56.05
2019-04-06T02:41:48.946Z,53.15
2019-04-06T02:44:16.279Z,53.05
2019-04-06T02:46:43.663Z,55.17
2019-04-06T02:49:10.961Z,59.10
2019-04-06T02:51:38.351Z,63.02
2019-04-06T02:54:05.554Z,54.35
2019-04-06T02:56:45.078Z,45.65
2019-04-06T02:59:01.639Z,48.58
2019-04-06T03:01:28.753Z,47.27
2019-04-06T03:03:55.840Z,42.27
2019-04-06T03:06:23.144Z,32.23
2019-04-06T03:08:50.563Z,38.58
2019-04-06T03:11:17.820Z,40.73
2019-04-06T03:13:45.201Z,37.48
2019-04-06T03:16:12.257Z,43.23
2019-04-06T03:18:39.586Z,52.55
2019-04-06T03:21:07.078Z,59.42
2019-04-06T03:23:49.172Z,71.80
2019-04-06T03:26:03.247Z,84.62
2019-04-06T03:28:30.271Z,84.80
2019-04-06T03:30:58.992Z,69.07
2019-04-06T03:33:26.068Z,59.00
2019-04-06T03:35:53.399Z,46.95
2019-04-06T03:38:20.596Z,48.85
2019-04-06T03:40:47.618Z,49.50
2019-04-06T03:43:14.671Z,55.83
2019-04-06T03:45:41.960Z,62.20
2019-04-06T03:48:09.279Z,58.30
2019-04-06T03:50:36.634Z,59.23
2019-04-06T03:53:03.806Z,62.90
2019-04-06T03:55:30.813Z,58.70
2019-04-06T03:57:57.859Z,61.33
2019-04-06T04:00:25.234Z,72.90
2019-04-06T04:02:53.721Z,74.05
2019-04-06T04:05:20.736Z,74.85
2019-04-06T04:07:48.150Z,71.47
2019-04-06T04:10:15.473Z,67.12
2019-04-06T04:12:42.527Z,72.62
2019-04-06T04:15:09.586Z,74.22
2019-04-06T04:17:36.633Z,71.02
2019-04-06T04:20:03.795Z,75.57
2019-04-06T04:22:34.477Z,124.72
2019-04-06T04:25:00.520Z,130.95
2019-04-06T04:27:30.183Z,92.67
2019-04-06T04:29:56.589Z,76.82
2019-04-06T04:32:23.940Z,65.00
2019-04-06T04:34:51.278Z,53.80
2019-04-06T04:37:18.736Z,45.95
2019-04-06T04:39:46.020Z,51.63
2019-04-06T04:42:13.079Z,61.23
2019-04-06T04:44:40.116Z,59.70
2019-04-06T04:47:07.231Z,76.15
2019-04-06T04:49:34.485Z,80.80
2019-04-06T04:52:01.538Z,76.47
2019-04-06T04:54:28.887Z,80.62
2019-04-06T04:56:56.317Z,86.05
2019-04-06T04:59:23.720Z,82.33
2019-04-06T05:01:51.042Z,71.80
2019-04-06T05:04:19.363Z,71.37
2019-04-06T05:06:46.911Z,64.00
2019-04-06T05:09:14.310Z,69.20
2019-04-06T05:11:41.625Z,63.58
2019-04-06T05:14:08.672Z,73.10
2019-04-06T05:16:35.809Z,72.97
2019-04-06T05:19:03.281Z,67.30
2019-04-06T05:21:30.615Z,59.45
2019-04-06T05:23:57.666Z,67.85
2019-04-06T05:26:24.725Z,67.25
2019-04-06T05:28:52.080Z,62.20
2019-04-06T05:31:19.128Z,62.73
2019-04-06T05:33:46.168Z,61.70
2019-04-06T05:36:14.376Z,61.05
2019-04-06T05:38:41.687Z,63.10
2019-04-06T05:41:09.044Z,62.78
2019-04-06T05:43:36.398Z,60.45
2019-04-06T05:46:03.776Z,62.88
2019-04-06T05:48:31.114Z,54.05
2019-04-06T05:50:58.469Z,56.70
2019-04-06T05:53:25.823Z,58.33
2019-04-06T05:55:52.875Z,56.20
2019-04-06T05:58:20.243Z,56.23
2019-04-06T06:00:47.285Z,56.95
2019-04-06T06:03:15.542Z,57.27
2019-04-06T06:05:42.666Z,56.58
2019-04-06T06:08:10.297Z,53.60
2019-04-06T06:10:38.609Z,51.60
2019-04-06T06:13:06.279Z,45.85
2019-04-06T06:15:33.310Z,50.80
2019-04-06T06:18:00.888Z,52.48
2019-04-06T06:20:28.267Z,52.13
2019-04-06T06:22:55.765Z,57.05
2019-04-06T06:25:23.202Z,48.52
2019-04-06T06:27:50.260Z,54.70
2019-04-06T06:30:17.804Z,51.50
2019-04-06T06:32:44.931Z,51.23
2019-04-06T06:35:11.984Z,51.88
2019-04-06T06:37:39.339Z,49.33
2019-04-06T06:40:06.383Z,47.65
2019-04-06T06:42:33.441Z,49.77
2019-04-06T06:45:00.484Z,54.75
2019-04-06T06:47:27.856Z,54.00
2019-04-06T06:49:54.905Z,52.20
2019-04-06T06:52:22.240Z,52.40
2019-04-06T06:54:49.279Z,53.08
2019-04-06T06:57:16.647Z,56.60
2019-04-06T06:59:44.015Z,56.53
2019-04-06T07:02:11.077Z,61.15
2019-04-06T07:04:38.127Z,65.40
2019-04-06T07:07:05.196Z,61.00
2019-04-06T07:09:32.236Z,59.73
2019-04-06T07:11:59.298Z,62.15
2019-04-06T07:14:26.596Z,60.35
2019-04-06T07:16:53.655Z,58.30
2019-04-06T07:19:21.018Z,56.53
2019-04-06T07:21:48.366Z,64.65
2019-04-06T07:24:15.708Z,72.50
2019-04-06T07:26:43.105Z,71.67
2019-04-06T07:29:10.143Z,60.65
2019-04-06T07:31:37.483Z,56.08
2019-04-06T07:34:04.837Z,52.88
2019-04-06T07:36:32.272Z,53.05
2019-04-06T07:38:59.632Z,57.45
2019-04-06T07:41:26.987Z,55.50
2019-04-06T07:43:54.559Z,54.90
2019-04-06T07:46:22.058Z,55.75
2019-04-06T07:48:49.372Z,58.28
2019-04-06T07:51:16.418Z,60.33
2019-04-06T07:53:43.531Z,58.95
2019-04-06T07:56:10.572Z,58.85
2019-04-06T07:58:47.842Z,61.35
2019-04-06T08:01:07.056Z,55.70
2019-04-06T08:03:34.367Z,57.60
2019-04-06T08:06:01.422Z,59.67
2019-04-06T08:08:29.070Z,58.10
2019-04-06T08:10:56.699Z,63.20
2019-04-06T08:13:23.753Z,58.90
2019-04-06T08:15:50.797Z,63.83
2019-04-06T08:18:18.240Z,65.90
2019-04-06T08:20:45.246Z,58.60
2019-04-06T08:23:12.304Z,62.38
2019-04-06T08:25:39.350Z,58.63
2019-04-06T08:28:06.401Z,59.23
2019-04-06T08:30:50.109Z,59.60
2019-04-06T08:33:17.522Z,57.78
2019-04-06T08:35:44.824Z,57.85
2019-04-06T08:38:12.147Z,61.48
2019-04-06T08:40:39.484Z,61.68
2019-04-06T08:43:06.840Z,57.73
2019-04-06T08:45:34.211Z,52.17
2019-04-06T08:48:01.675Z,55.90
2019-04-06T08:50:28.716Z,61.65
2019-04-06T08:52:56.076Z,58.58
2019-04-06T08:55:23.411Z,58.48
2019-04-06T08:57:51.220Z,58.73
2019-04-06T09:00:18.248Z,54.80
2019-04-06T09:02:45.291Z,52.73
2019-04-06T09:05:12.629Z,55.65
2019-04-06T09:07:40.941Z,58.35
2019-04-06T09:10:08.601Z,53.73
2019-04-06T09:12:35.920Z,56.02
2019-04-06T09:15:03.256Z,58.10
2019-04-06T09:17:30.288Z,55.80
2019-04-06T09:19:57.743Z,54.53
2019-04-06T09:22:25.346Z,55.08
2019-04-06T09:24:53.560Z,51.58
2019-04-06T09:27:20.613Z,51.25
2019-04-06T09:29:47.674Z,53.50
2019-04-06T09:32:15.090Z,53.63
2019-04-06T09:34:42.428Z,51.10
2019-04-06T09:37:09.799Z,49.90
2019-04-06T09:39:37.257Z,50.35
2019-04-06T09:42:04.838Z,49.83
2019-04-06T09:44:31.851Z,49.35
2019-04-06T09:47:00.345Z,48.58
2019-04-06T09:49:27.483Z,42.80
2019-04-06T09:51:54.528Z,45.83
2019-04-06T09:54:21.858Z,41.20
2019-04-06T09:56:49.109Z,44.70
2019-04-06T09:59:17.617Z,41.37
2019-04-06T10:01:44.818Z,41.90
2019-04-06T10:04:12.128Z,39.88
2019-04-06T10:06:39.684Z,38.42
2019-04-06T10:09:07.485Z,37.95
2019-04-06T10:11:34.815Z,36.28
2019-04-06T10:14:02.179Z,36.75
2019-04-06T10:16:29.508Z,36.55
2019-04-06T10:18:56.641Z,34.95
2019-04-06T10:21:23.694Z,35.13
2019-04-06T10:23:51.066Z,37.78
2019-04-06T10:26:19.195Z,36.55
2019-04-06T10:28:46.486Z,36.95
2019-04-06T10:31:13.862Z,34.03
2019-04-06T10:33:40.891Z,37.85
2019-04-06T10:36:08.247Z,33.13
2019-04-06T10:38:35.602Z,36.75
2019-04-06T10:41:02.958Z,35.80
2019-04-06T10:43:30.391Z,33.05
2019-04-06T10:45:57.688Z,34.70
2019-04-06T10:48:25.024Z,30.68
2019-04-06T10:50:52.844Z,34.73
2019-04-06T10:53:19.903Z,32.08
2019-04-06T10:55:47.304Z,34.90
2019-04-06T10:58:15.778Z,28.20
2019-04-06T11:00:44.564Z,28.07
2019-04-06T11:03:11.967Z,27.55
2019-04-06T11:05:39.278Z,26.48
2019-04-06T11:08:06.630Z,27.98
2019-04-06T11:10:33.959Z,26.55
2019-04-06T11:13:01.347Z,25.15
2019-04-06T11:15:28.480Z,24.50
2019-04-06T11:17:55.550Z,25.10
2019-04-06T11:20:22.584Z,24.00
2019-04-06T11:22:49.945Z,22.17
2019-04-06T11:25:17.389Z,19.62
2019-04-06T11:27:45.635Z,20.48
2019-04-06T11:30:14.842Z,21.27
2019-04-06T11:32:42.288Z,19.57
2019-04-06T11:35:09.353Z,19.70
2019-04-06T11:37:36.413Z,21.48
2019-04-06T11:40:04.429Z,19.73
2019-04-06T11:42:31.754Z,21.68
2019-04-06T11:44:58.802Z,21.30
2019-04-06T11:47:26.931Z,20.97
2019-04-06T11:49:54.553Z,23.00
2019-04-06T11:52:21.670Z,22.40
2019-04-06T11:54:49.041Z,22.93
2019-04-06T11:57:16.110Z,22.62
2019-04-06T11:59:43.611Z,21.50
2019-04-06T12:02:11.000Z,21.15
2019-04-06T12:04:38.039Z,21.97
2019-04-06T12:07:05.407Z,19.60
2019-04-06T12:09:32.729Z,21.48
2019-04-06T12:12:00.031Z,18.73
2019-04-06T12:14:27.383Z,19.90
2019-04-06T12:16:54.733Z,18.37
2019-04-06T12:19:22.101Z,18.27
2019-04-06T12:21:49.156Z,19.40
2019-04-06T12:24:16.776Z,20.72
2019-04-06T12:26:44.176Z,16.73
2019-04-06T12:29:11.338Z,18.15
2019-04-06T12:31:38.754Z,19.17
2019-04-06T12:34:06.107Z,18.50
2019-04-06T12:36:33.256Z,19.42
2019-04-06T12:39:00.639Z,18.60
2019-04-06T12:41:29.349Z,16.00
2019-04-06T12:43:56.757Z,15.93
2019-04-06T12:46:24.212Z,16.32
2019-04-06T12:48:52.740Z,16.10
2019-04-06T12:51:20.497Z,14.28
2019-04-06T12:53:48.835Z,13.80
2019-04-06T12:56:16.302Z,14.07
2019-04-06T12:58:43.422Z,14.58
2019-04-06T13:01:10.930Z,15.23
2019-04-06T13:03:38.191Z,14.18
2019-04-06T13:06:05.633Z,14.78
2019-04-06T13:08:32.969Z,18.87
2019-04-06T13:11:00.326Z,13.93
2019-04-06T13:13:27.696Z,15.35
2019-04-06T13:15:54.757Z,14.25
2019-04-06T13:18:21.804Z,14.25
2019-04-06T13:20:48.848Z,14.50
2019-04-06T13:23:16.182Z,14.23
2019-04-06T13:25:43.531Z,14.38
2019-04-06T13:28:10.802Z,14.05
2019-04-06T13:30:38.517Z,14.03
2019-04-06T13:33:05.876Z,13.65
2019-04-06T13:35:32.905Z,16.32
2019-04-06T13:38:00.515Z,14.80
2019-04-06T13:40:28.810Z,14.73
2019-04-06T13:42:56.145Z,13.88
2019-04-06T13:45:23.500Z,14.53
2019-04-06T13:47:51.586Z,15.40
2019-04-06T13:50:18.951Z,14.15
2019-04-06T13:52:46.010Z,14.07
2019-04-06T13:55:13.297Z,14.93
2019-04-06T13:57:40.683Z,16.80
2019-04-06T14:00:08.041Z,17.98
2019-04-06T14:02:35.275Z,14.40
2019-04-06T14:05:02.874Z,15.00
2019-04-06T14:07:29.877Z,16.23
2019-04-06T14:09:57.260Z,14.68
2019-04-06T14:12:24.388Z,17.67
2019-04-06T14:14:51.766Z,17.42
2019-04-06T14:17:19.117Z,17.45
2019-04-06T14:19:46.471Z,15.45
2019-04-06T14:22:13.832Z,14.78
2019-04-06T14:24:41.201Z,15.63
2019-04-06T14:27:08.662Z,16.32
2019-04-06T14:29:36.048Z,15.53
2019-04-06T14:32:03.900Z,15.72
2019-04-06T14:34:31.008Z,15.53
2019-04-06T14:36:58.306Z,15.20
2019-04-06T14:39:25.459Z,15.93
2019-04-06T14:41:53.307Z,17.12
2019-04-06T14:44:20.612Z,14.55
2019-04-06T14:46:48.131Z,13.90
2019-04-06T14:49:28.859Z,14.53
2019-04-06T14:51:43.928Z,14.18
2019-04-06T14:54:11.542Z,15.78
2019-04-06T14:56:38.951Z,15.88
2019-04-06T14:59:06.016Z,15.78
2019-04-06T15:01:41.189Z,15.23
2019-04-06T15:04:02.469Z,14.47
2019-04-06T15:06:29.511Z,14.55
2019-04-06T15:08:56.852Z,15.23
2019-04-06T15:11:24.182Z,15.00
2019-04-06T15:13:51.700Z,13.50
2019-04-06T15:16:19.125Z,13.72
2019-04-06T15:18:46.377Z,14.07
2019-04-06T15:21:13.487Z,17.05
2019-04-06T15:23:41.005Z,14.30
2019-04-06T15:26:08.456Z,15.43
2019-04-06T15:28:35.505Z,11.97
2019-04-06T15:31:02.638Z,14.10
2019-04-06T15:33:29.995Z,13.55
2019-04-06T15:35:57.349Z,14.03
2019-04-06T15:38:24.644Z,14.03
2019-04-06T15:40:51.862Z,15.98
2019-04-06T15:43:19.793Z,13.58
2019-04-06T15:45:47.177Z,14.38
2019-04-06T15:48:14.533Z,13.38
2019-04-06T15:50:41.886Z,13.50
2019-04-06T15:53:08.939Z,14.78
2019-04-06T15:55:36.084Z,13.22
2019-04-06T15:58:03.130Z,13.50
2019-04-06T16:00:30.594Z,15.50
2019-04-06T16:02:57.849Z,13.98
2019-04-06T16:05:24.866Z,10.88
2019-04-06T16:07:51.924Z,12.20
2019-04-06T16:10:18.988Z,12.60
2019-04-06T16:12:47.109Z,12.30
2019-04-06T16:15:14.182Z,13.00
2019-04-06T16:17:41.565Z,13.43
2019-04-06T16:20:09.729Z,12.47
2019-04-06T16:22:37.246Z,13.68
2019-04-06T16:25:04.627Z,11.78
2019-04-06T16:27:31.932Z,11.93
2019-04-06T16:29:59.280Z,11.93
2019-04-06T16:32:32.424Z,14.23
2019-04-06T16:34:55.409Z,11.30
2019-04-06T16:37:22.765Z,10.95
2019-04-06T16:39:50.115Z,11.08
2019-04-06T16:42:17.176Z,10.98
2019-04-06T16:44:44.228Z,12.10
2019-04-06T16:47:11.569Z,12.28
2019-04-06T16:49:38.925Z,11.83
2019-04-06T16:52:05.999Z,10.38
2019-04-06T16:54:33.325Z,11.43
2019-04-06T16:57:00.683Z,11.18
2019-04-06T16:59:27.808Z,10.65
2019-04-06T17:01:54.927Z,10.70
2019-04-06T17:04:22.356Z,10.20
2019-04-06T17:06:49.852Z,12.30
2019-04-06T17:09:17.054Z,9.38
2019-04-06T17:11:44.379Z,13.10
2019-04-06T17:14:11.681Z,11.63
2019-04-06T17:16:39.007Z,10.43
2019-04-06T17:19:20.633Z,9.35
2019-04-06T17:21:48.260Z,12.40
2019-04-06T17:24:16.761Z,9.78
2019-04-06T17:26:44.543Z,9.68
2019-04-06T17:29:13.835Z,10.05
2019-04-06T17:31:43.995Z,10.48
2019-04-06T17:34:10.895Z,11.80
2019-04-06T17:36:41.967Z,10.72
2019-04-06T17:39:16.819Z,10.38
2019-04-06T17:41:44.422Z,11.22
2019-04-06T17:44:18.551Z,10.43
2019-04-06T17:46:46.233Z,12.07
2019-04-06T17:49:29.615Z,9.95
2019-04-06T17:54:33.508Z,13.70
2019-04-06T17:57:00.838Z,10.35
2019-04-06T17:59:31.283Z,11.73
2019-04-06T18:07:25.421Z,11.28
2019-04-06T18:09:56.666Z,11.38
2019-04-06T18:12:24.649Z,10.80
2019-04-06T18:14:52.975Z,11.12
2019-04-06T18:17:20.230Z,12.28
2019-04-06T18:19:57.282Z,9.88
2019-04-06T18:22:26.776Z,9.63
2019-04-06T18:25:04.172Z,10.32
2019-04-06T18:27:34.440Z,10.58
2019-04-06T18:30:01.669Z,11.08
2019-04-06T18:32:34.812Z,11.25
2019-04-06T18:35:05.086Z,11.28
2019-04-06T18:37:33.639Z,10.78
2019-04-06T18:40:01.845Z,12.00
2019-04-06T18:42:29.682Z,10.03
2019-04-06T18:44:57.340Z,11.55
2019-04-06T18:47:24.527Z,11.30
2019-04-06T18:49:52.379Z,11.97
2019-04-06T18:52:20.229Z,12.30
2019-04-06T18:57:32.362Z,10.23
2019-04-06T19:00:00.828Z,11.10
2019-04-06T19:02:28.475Z,13.25
2019-04-06T19:04:55.843Z,13.72
2019-04-06T19:07:25.071Z,10.68
2019-04-06T19:09:52.339Z,11.03
2019-04-06T19:12:19.974Z,12.30
2019-04-06T19:19:53.838Z,10.88
2019-04-06T19:22:22.110Z,11.43
2019-04-06T19:24:51.320Z,11.15
2019-04-06T19:27:18.559Z,11.63
2019-04-06T19:29:49.365Z,15.03
2019-04-06T19:32:33.133Z,11.78
2019-04-06T19:42:57.341Z,11.75
2019-04-06T19:45:24.963Z,13.35
2019-04-06T19:47:54.131Z,13.30
2019-04-06T19:50:23.345Z,11.03
2019-04-06T19:52:57.921Z,10.88
2019-04-06T19:55:25.553Z,11.50
2019-04-06T19:57:57.216Z,10.93
2019-04-06T20:02:59.478Z,11.68
2019-04-06T20:05:29.672Z,11.53
2019-04-06T20:07:57.853Z,10.45
2019-04-06T20:10:25.139Z,10.95
2019-04-06T20:12:52.427Z,14.15
2019-04-06T20:15:24.407Z,13.18
2019-04-06T20:17:54.017Z,14.23
2019-04-06T20:25:38.135Z,13.03
2019-04-06T20:30:58.083Z,11.63
2019-04-06T20:33:30.502Z,14.25
2019-04-06T20:35:57.744Z,15.08
2019-04-06T20:38:26.157Z,16.12
2019-04-06T20:40:53.877Z,14.73
2019-04-06T20:43:22.064Z,16.02
2019-04-06T20:45:49.335Z,14.60
2019-04-06T20:48:25.748Z,13.25
2019-04-06T20:50:52.813Z,12.80
2019-04-06T20:53:22.643Z,13.08
2019-04-06T20:58:26.887Z,16.75
2019-04-06T21:00:54.519Z,15.15
2019-04-06T21:03:23.298Z,14.80
2019-04-06T21:05:52.822Z,16.12
2019-04-06T21:08:27.195Z,16.23
2019-04-06T21:10:58.013Z,17.87
2019-04-06T21:13:25.435Z,14.55
2019-04-06T21:15:53.636Z,13.50
2019-04-06T21:18:24.372Z,16.67
2019-04-06T21:28:58.339Z,15.05
2019-04-06T21:31:25.561Z,14.95
2019-04-06T21:36:38.005Z,14.68
2019-04-06T21:49:45.988Z,16.50
2019-04-06T21:52:13.026Z,17.45
2019-04-06T21:54:40.973Z,15.78
2019-04-06T21:57:20.030Z,15.43
2019-04-06T21:59:47.345Z,16.52
2019-04-06T22:02:14.811Z,14.33
2019-04-06T22:04:41.936Z,15.78
2019-04-06T22:07:09.831Z,15.10
2019-04-06T22:09:37.007Z,14.70
2019-04-06T22:12:04.051Z,16.20
2019-04-06T22:14:31.641Z,14.10
2019-04-06T22:16:59.312Z,14.23
2019-04-06T22:19:27.782Z,18.62
2019-04-06T22:21:55.409Z,14.63
2019-04-06T22:24:22.509Z,13.62
2019-04-06T22:26:49.683Z,14.23
2019-04-06T22:29:17.344Z,18.10
2019-04-06T22:31:44.922Z,13.60
2019-04-06T22:34:12.571Z,12.60
2019-04-06T22:36:40.182Z,15.05
2019-04-06T22:39:07.478Z,14.35
2019-04-06T22:41:35.405Z,13.35
2019-04-06T22:44:03.022Z,14.93
2019-04-06T22:46:31.570Z,13.90
2019-04-06T22:48:58.967Z,13.15
2019-04-06T22:51:26.502Z,13.60
2019-04-06T22:53:53.537Z,11.15
2019-04-06T22:56:21.429Z,11.53
2019-04-06T22:58:49.343Z,12.47
2019-04-06T23:01:16.656Z,10.35
2019-04-06T23:03:45.013Z,9.58
2019-04-06T23:06:12.306Z,9.60
2019-04-06T23:08:39.618Z,11.22
2019-04-06T23:11:06.937Z,14.45
2019-04-06T23:13:34.533Z,12.20
2019-04-06T23:16:02.091Z,14.05
2019-04-06T23:18:29.368Z,15.58
2019-04-06T23:20:56.567Z,10.65
2019-04-06T23:23:23.624Z,12.63
2019-04-06T23:25:50.922Z,10.30
2019-04-06T23:28:18.210Z,10.72
2019-04-06T23:30:45.351Z,9.00
2019-04-06T23:33:12.378Z,8.73
2019-04-06T23:35:39.705Z,9.28
2019-04-06T23:38:07.465Z,7.35
2019-04-06T23:40:34.836Z,8.18
2019-04-06T23:43:02.116Z,9.08
2019-04-06T23:45:30.001Z,7.33
2019-04-06T23:47:57.293Z,12.28
2019-04-06T23:50:24.591Z,16.93
2019-04-06T23:52:51.637Z,15.05
2019-04-06T23:55:18.979Z,13.70
2019-04-06T23:57:46.562Z,13.83
